Time;durP1;ratioP1;P1;durP2;ratioP2;P2;SDS_P1;SDS_P2;PMS_P1;PMS_P2;Temp;Humidity;BMP_temperature;BMP_pressure;BME280_temperature;BME280_humidity;BME280_pressure;Samples;Min_cycle;Max_cycle;Signal;HPM_P1;HPM_P2
2022/01/29 00:00:06;;;;;;;24.87;14.17;;;;;;;6.97;68.84;102009.84;5090937;28;20165;-83
2022/01/29 00:02:32;;;;;;;28.67;16.43;;;;;;;7.00;69.12;101994.44;5092795;28;20185;-80
2022/01/29 00:04:57;;;;;;;22.30;16.50;;;;;;;6.86;69.46;101996.41;5089401;28;20732;-81
2022/01/29 00:07:22;;;;;;;27.60;15.53;;;;;;;7.10;68.53;101992.25;5082133;28;20165;-81
2022/01/29 00:09:48;;;;;;;27.30;16.33;;;;;;;7.04;69.27;101991.16;5083793;28;20224;-78
2022/01/29 00:12:13;;;;;;;31.50;17.30;;;;;;;7.18;68.60;101983.09;5079695;28;20161;-77
2022/01/29 00:14:39;;;;;;;30.37;17.93;;;;;;;7.49;68.97;101972.31;5079422;28;20173;-77
2022/01/29 00:17:04;;;;;;;38.00;19.33;;;;;;;7.31;69.34;101972.44;5079225;28;20161;-80
2022/01/29 00:19:29;;;;;;;27.93;17.73;;;;;;;7.57;68.25;101965.72;5079392;28;20218;-79
2022/01/29 00:21:55;;;;;;;28.17;17.40;;;;;;;7.36;68.25;101970.91;5079313;28;20256;-81
2022/01/29 00:24:20;;;;;;;29.40;18.30;;;;;;;7.53;68.27;101950.84;5079843;28;20169;-78
2022/01/29 00:26:46;;;;;;;24.97;19.07;;;;;;;6.76;70.38;101954.47;5079250;28;20201;-82
2022/01/29 00:29:20;;;;;;;30.50;19.13;;;;;;;7.25;69.06;101952.31;5061915;28;20278;-82
2022/01/29 00:31:46;;;;;;;27.97;19.70;;;;;;;6.84;70.56;101934.94;5062653;28;20172;-79
2022/01/29 00:34:11;;;;;;;31.90;20.10;;;;;;;6.65;71.38;101948.78;5079090;28;20411;-79
2022/01/29 00:36:36;;;;;;;32.97;18.40;;;;;;;7.11;71.65;101932.66;5079452;28;20168;-80
2022/01/29 00:39:02;;;;;;;33.07;22.00;;;;;;;7.33;69.41;101929.25;5079434;28;20176;-80
2022/01/29 00:41:28;;;;;;;31.93;20.93;;;;;;;7.27;70.03;101938.53;5079106;28;20169;-80
2022/01/29 00:43:53;;;;;;;34.53;21.53;;;;;;;6.89;71.33;101920.50;5080548;28;20400;-78
2022/01/29 00:46:18;;;;;;;33.13;21.93;;;;;;;6.97;70.49;101913.03;5079199;28;20243;-79
2022/01/29 00:48:43;;;;;;;31.63;21.50;;;;;;;7.24;69.73;101911.63;5078717;28;20234;-78
2022/01/29 00:51:09;;;;;;;31.63;22.10;;;;;;;7.37;70.15;101889.69;5079807;28;20210;-82
2022/01/29 00:53:34;;;;;;;32.50;20.20;;;;;;;7.52;69.65;101886.84;5078895;28;20216;-81
2022/01/29 00:56:13;;;;;;;31.40;20.83;;;;;;;7.39;71.09;101890.63;5078725;28;20263;-84
2022/01/29 00:58:40;;;;;;;32.83;21.10;;;;;;;7.38;71.07;101878.47;5044949;28;20213;-82
2022/01/29 01:01:05;;;;;;;35.70;24.37;;;;;;;6.99;71.96;101881.16;5044792;28;20411;-78
2022/01/29 01:03:31;;;;;;;40.07;25.80;;;;;;;7.08;73.20;101871.19;5078742;28;20422;-78
2022/01/29 01:05:56;;;;;;;43.70;25.53;;;;;;;7.06;72.95;101875.44;5078552;28;20208;-80
2022/01/29 01:08:57;;;;;;;38.40;25.33;;;;;;;6.98;75.13;101863.84;5078668;28;20222;-83
2022/01/29 01:11:15;;;;;;;40.60;25.67;;;;;;;6.61;75.75;101859.66;5064773;28;20259;-80
2022/01/29 01:13:41;;;;;;;37.70;27.20;;;;;;;6.86;75.97;101869.41;5078417;28;20415;-81
2022/01/29 01:16:06;;;;;;;35.17;24.47;;;;;;;7.12;74.85;101854.06;5078921;28;20165;-77
2022/01/29 01:18:32;;;;;;;39.33;26.27;;;;;;;7.11;74.67;101854.88;5078299;28;20547;-79
2022/01/29 01:20:57;;;;;;;42.57;28.13;;;;;;;6.90;75.47;101855.75;5078459;28;20204;-78
2022/01/29 01:23:22;;;;;;;44.00;27.50;;;;;;;7.12;75.38;101838.50;5078386;28;20499;-79
2022/01/29 01:25:48;;;;;;;48.90;27.87;;;;;;;6.74;76.76;101830.88;5078326;28;20570;-79
2022/01/29 01:28:14;;;;;;;45.47;31.00;;;;;;;7.20;76.96;101820.66;5078145;28;20169;-77
2022/01/29 01:30:39;;;;;;;44.50;30.00;;;;;;;6.99;76.76;101816.34;5078948;28;20452;-78
2022/01/29 01:33:05;;;;;;;41.90;29.13;;;;;;;6.89;77.05;101809.03;5078049;28;20583;-79
2022/01/29 01:35:53;;;;;;;45.17;30.90;;;;;;;6.88;77.98;101813.31;5078362;28;20165;-78
2022/01/29 01:38:27;;;;;;;51.60;34.03;;;;;;;7.05;77.48;101814.00;5078279;28;20813;-77
2022/01/29 01:40:59;;;;;;;47.13;30.20;;;;;;;7.15;77.56;101820.47;5078058;28;20800;-79
2022/01/29 01:43:24;;;;;;;47.97;32.77;;;;;;;6.87;78.39;101813.25;5077797;28;20669;-90
2022/01/29 01:45:49;;;;;;;51.43;34.00;;;;;;;7.15;77.80;101823.06;5061406;28;20466;-89
2022/01/29 01:55:12;;;;;;;55.50;34.07;;;;;;;7.27;78.23;101788.09;5090686;28;20437;-88
2022/01/29 01:58:03;;;;;;;56.57;36.90;;;;;;;7.11;77.69;101782.25;5044972;28;20405;-86
2022/01/29 02:00:29;;;;;;;59.53;34.70;;;;;;;7.38;77.29;101763.44;5044666;28;20709;-88
2022/01/29 02:06:18;;;;;;;63.00;38.53;;;;;;;7.14;79.04;101737.41;5054583;28;20462;-87
2022/01/29 02:08:43;;;;;;;57.13;37.10;;;;;;;7.37;78.26;101735.72;5079989;28;20419;-87
2022/01/29 02:11:10;;;;;;;56.90;38.60;;;;;;;7.05;79.55;101723.25;5061556;28;20413;-84
2022/01/29 02:15:05;;;;;;;;;;;;;;;;;;;;;
2022/01/29 02:17:13;;;;;;;64.17;38.70;;;;;;;7.61;78.32;101704.63;4995623;28;20409;-85
2022/01/29 02:19:38;;;;;;;57.00;37.67;;;;;;;7.09;79.56;101708.72;5044396;28;20390;-85
2022/01/29 02:22:04;;;;;;;66.93;40.43;;;;;;;7.45;78.42;101694.53;5044750;28;20179;-84
2022/01/29 02:24:29;;;;;;;58.00;37.47;;;;;;;6.89;79.83;101697.56;5061187;28;20181;-84
2022/01/29 02:27:15;;;;;;;59.10;37.50;;;;;;;6.94;80.53;101687.38;5064177;28;20197;-88
2022/01/29 02:33:09;;;;;;;61.67;37.27;;;;;;;7.47;80.02;101659.13;5078816;28;20789;-84
2022/01/29 02:35:40;;;;;;;58.50;36.30;;;;;;;7.23;79.90;101670.34;5044356;28;20481;-82
2022/01/29 02:38:05;;;;;;;59.80;39.23;;;;;;;7.04;80.78;101671.34;5060804;28;20415;-82
2022/01/29 02:40:35;;;;;;;58.77;37.73;;;;;;;7.04;81.48;101654.06;5080777;28;20715;-81
2022/01/29 02:43:46;;;;;;;62.03;38.80;;;;;;;7.45;79.62;101653.00;5048105;28;20169;-82
2022/01/29 02:48:53;;;;;;;64.73;38.60;;;;;;;7.23;80.64;101636.63;5064785;28;20405;-81
2022/01/29 02:51:19;;;;;;;63.23;40.57;;;;;;;7.07;81.60;101636.03;5064936;28;20430;-87
2022/01/29 02:53:45;;;;;;;69.43;38.23;;;;;;;7.01;82.14;101622.84;5064950;28;20768;-85
2022/01/29 02:56:10;;;;;;;65.50;39.50;;;;;;;7.14;81.56;101625.91;5084238;28;20502;-86
2022/01/29 02:58:37;;;;;;;72.73;39.70;;;;;;;6.99;82.77;101613.25;5079689;28;20291;-85
2022/01/29 03:04:24;;;;;;;60.33;38.67;;;;;;;7.08;82.92;101611.88;5090385;28;20215;-88
2022/01/29 03:06:50;;;;;;;67.47;41.63;;;;;;;6.89;83.01;101601.66;5068581;28;20437;-81
2022/01/29 03:09:15;;;;;;;68.33;38.33;;;;;;;7.30;82.20;101601.44;5081632;28;20430;-81
2022/01/29 03:11:40;;;;;;;66.17;39.40;;;;;;;7.52;81.28;101600.50;5081855;28;20160;-81
2022/01/29 03:14:06;;;;;;;63.67;40.00;;;;;;;7.12;82.64;101605.13;5081102;28;20244;-81
2022/01/29 03:16:32;;;;;;;55.77;36.37;;;;;;;6.80;83.81;101591.78;5081139;28;20176;-81
2022/01/29 03:18:57;;;;;;;62.03;37.03;;;;;;;7.27;82.87;101594.44;5063706;28;20165;-81
2022/01/29 03:21:22;;;;;;;65.00;41.53;;;;;;;6.98;84.28;101596.81;5081044;28;20418;-81
2022/01/29 03:23:48;;;;;;;65.50;38.27;;;;;;;6.83;85.29;101586.75;5080716;28;20180;-80
2022/01/29 03:26:13;;;;;;;62.60;39.00;;;;;;;6.89;84.87;101576.59;5063801;28;20185;-80
2022/01/29 03:28:38;;;;;;;60.53;36.90;;;;;;;7.13;84.38;101564.50;5080599;28;20260;-80
2022/01/29 03:31:04;;;;;;;63.83;38.67;;;;;;;7.49;83.58;101566.69;5063155;28;20168;-78
2022/01/29 03:33:38;;;;;;;62.73;37.83;;;;;;;6.99;84.23;101559.69;5080879;28;20169;-80
2022/01/29 03:36:03;;;;;;;62.57;36.27;;;;;;;7.16;84.59;101549.94;5048898;28;20168;-86
2022/01/29 03:38:29;;;;;;;61.57;37.37;;;;;;;6.95;84.81;101536.19;5047168;28;20382;-85
2022/01/29 03:40:57;;;;;;;59.40;37.47;;;;;;;6.85;85.85;101545.34;5065009;28;20180;-86
2022/01/29 03:43:33;;;;;;;59.47;35.90;;;;;;;7.05;85.26;101528.81;5047558;28;20468;-88
2022/01/29 03:45:58;;;;;;;59.97;36.33;;;;;;;7.08;84.82;101526.31;5050612;28;20436;-86
2022/01/29 03:48:23;;;;;;;55.60;35.13;;;;;;;7.22;84.41;101502.59;5063673;28;20427;-86
2022/01/29 04:08:49;;;;;;;53.27;32.13;;;;;;;7.09;85.26;101485.75;5080500;28;20358;-89
2022/01/29 04:11:15;;;;;;;51.27;34.10;;;;;;;7.32;85.31;101475.28;5063693;28;20414;-86
2022/01/29 04:27:19;;;;;;;52.03;32.73;;;;;;;7.14;85.52;101440.09;5083530;28;20443;-83
2022/01/29 04:29:56;;;;;;;47.80;30.30;;;;;;;7.31;86.45;101439.81;5080162;28;20851;-83
2022/01/29 04:32:43;;;;;;;51.20;33.57;;;;;;;7.42;86.29;101434.13;5079991;28;20464;-84
2022/01/29 04:35:07;;;;;;;45.70;31.70;;;;;;;7.56;84.37;101445.00;5079267;28;20420;-83
2022/01/29 04:37:33;;;;;;;45.93;31.30;;;;;;;7.38;85.67;101436.59;5062241;28;20419;-83
2022/01/29 04:39:58;;;;;;;44.27;28.27;;;;;;;6.96;86.37;101427.38;5045324;28;20179;-81
2022/01/29 04:42:23;;;;;;;44.67;30.00;;;;;;;7.53;84.81;101425.84;5062102;28;20173;-82
2022/01/29 04:44:49;;;;;;;44.50;30.67;;;;;;;7.41;86.17;101414.25;5062314;28;20430;-81
2022/01/29 04:47:14;;;;;;;44.87;30.13;;;;;;;7.19;86.88;101404.84;5061701;28;20253;-82
2022/01/29 04:50:04;;;;;;;45.57;29.37;;;;;;;6.95;87.87;101393.63;5078980;28;20180;-85
2022/01/29 04:52:29;;;;;;;46.70;32.33;;;;;;;7.42;86.20;101405.59;5045504;28;20191;-82
2022/01/29 04:54:55;;;;;;;42.10;28.80;;;;;;;7.44;86.52;101392.69;5079148;28;20415;-84
2022/01/29 05:02:02;;;;;;;47.93;30.77;;;;;;;7.13;88.37;101381.31;5099422;28;20191;-82
2022/01/29 05:04:08;;;;;;;45.87;30.80;;;;;;;7.15;90.06;101373.56;5087970;28;20413;-85
2022/01/29 05:12:50;;;;;;;45.07;28.50;;;;;;;7.38;88.14;101361.38;5084720;22;20930;-84
2022/01/29 05:15:28;;;;;;;41.17;27.30;;;;;;;7.10;89.88;101356.97;5080709;28;20409;-82
2022/01/29 05:29:14;;;;;;;40.00;25.80;;;;;;;7.41;89.36;101330.31;5078873;28;20417;-80
2022/01/29 05:31:39;;;;;;;41.37;27.93;;;;;;;7.54;88.10;101326.44;5078493;28;20385;-83
2022/01/29 05:34:05;;;;;;;39.03;27.73;;;;;;;7.52;88.23;101320.28;5078764;28;20534;-82
2022/01/29 05:36:31;;;;;;;36.70;26.73;;;;;;;7.53;89.20;101312.56;5079363;28;20175;-84
2022/01/29 05:38:56;;;;;;;39.07;26.40;;;;;;;7.42;88.81;101314.81;5077813;28;20184;-83
2022/01/29 05:41:22;;;;;;;39.10;25.23;;;;;;;7.53;89.08;101309.97;5078079;28;20183;-84
2022/01/29 05:43:47;;;;;;;38.20;25.83;;;;;;;7.67;88.03;101309.50;5061840;28;20450;-84
2022/01/29 05:46:16;;;;;;;37.70;25.77;;;;;;;7.91;87.25;101307.69;5061097;28;20208;-84
2022/01/29 05:48:45;;;;;;;38.67;25.87;;;;;;;7.69;87.89;101307.84;5077550;28;20196;-85
2022/01/29 05:51:11;;;;;;;40.10;26.40;;;;;;;7.82;88.05;101298.72;5078761;28;20386;-84
2022/01/29 05:53:39;;;;;;;34.73;25.67;;;;;;;7.86;88.02;101296.25;5061057;28;20428;-84
2022/01/29 05:56:08;;;;;;;41.13;26.30;;;;;;;7.54;88.02;101300.47;5061938;28;20753;-83
2022/01/29 05:58:36;;;;;;;33.07;24.37;;;;;;;7.65;89.09;101295.63;5066345;28;20429;-83
2022/01/29 06:01:10;;;;;;;32.10;23.77;;;;;;;7.70;88.62;101297.50;5068627;28;20423;-84
2022/01/29 06:03:35;;;;;;;31.70;23.07;;;;;;;7.85;87.99;101286.72;5066463;28;20400;-83
2022/01/29 06:06:00;;;;;;;31.77;23.77;;;;;;;8.03;87.11;101288.94;5062818;28;20867;-82
2022/01/29 06:08:26;;;;;;;32.43;23.17;;;;;;;8.02;87.41;101274.19;5078874;28;20180;-83
2022/01/29 06:10:51;;;;;;;30.00;22.07;;;;;;;7.92;87.17;101277.38;5078749;28;20225;-83
2022/01/29 06:13:17;;;;;;;35.87;24.07;;;;;;;8.17;87.09;101283.28;5078181;28;20195;-82
2022/01/29 06:15:45;;;;;;;32.30;22.50;;;;;;;7.99;87.48;101266.34;5080641;28;20173;-83
2022/01/29 06:18:13;;;;;;;28.07;21.90;;;;;;;7.95;88.67;101261.03;5082611;28;20196;-83
2022/01/29 06:20:39;;;;;;;31.20;22.00;;;;;;;8.39;86.37;101262.25;5083434;28;20796;-84
2022/01/29 06:23:37;;;;;;;33.10;25.30;;;;;;;8.15;86.98;101252.06;5064007;28;20443;-85
2022/01/29 06:36:38;;;;;;;32.80;22.83;;;;;;;8.05;88.39;101234.47;5001660;28;20369;-87
2022/01/29 06:39:06;;;;;;;38.00;23.80;;;;;;;8.12;88.16;101230.31;4984427;28;20836;-83
2022/01/29 06:41:38;;;;;;;38.13;22.50;;;;;;;7.72;89.66;101233.53;4984498;28;20397;-84
2022/01/29 06:44:03;;;;;;;36.67;25.57;;;;;;;7.91;89.39;101221.09;5001026;28;20392;-83
2022/01/29 06:46:37;;;;;;;39.10;24.70;;;;;;;8.08;89.77;101227.66;5043463;28;20462;-84
2022/01/29 06:49:03;;;;;;;40.13;26.90;;;;;;;7.99;89.76;101229.97;5063999;28;20176;-80
2022/01/29 06:55:12;;;;;;;36.43;25.50;;;;;;;7.88;90.06;101215.84;5081458;28;20191;-86
2022/01/29 06:57:44;;;;;;;33.50;23.40;;;;;;;7.88;91.25;101223.63;5080991;28;20443;-86
2022/01/29 07:00:12;;;;;;;40.80;27.50;;;;;;;8.03;90.42;101217.97;5065208;28;20382;-86
2022/01/29 07:02:38;;;;;;;41.27;27.17;;;;;;;8.34;89.75;101214.50;5065196;28;20398;-88
2022/01/29 07:05:04;;;;;;;37.63;25.67;;;;;;;7.98;91.05;101228.22;5064336;28;20397;-87
2022/01/29 07:07:30;;;;;;;35.33;26.10;;;;;;;8.16;90.88;101229.56;5085799;28;20481;-87
2022/01/29 07:09:55;;;;;;;38.13;25.43;;;;;;;8.13;89.99;101216.50;5087123;28;20435;-87
2022/01/29 07:12:21;;;;;;;42.10;25.50;;;;;;;8.20;89.50;101227.13;5084076;28;20228;-86
2022/01/29 07:14:49;;;;;;;37.27;25.77;;;;;;;8.27;91.22;101218.63;5065246;28;20181;-83
2022/01/29 07:17:17;;;;;;;32.17;24.00;;;;;;;8.63;89.06;101226.50;5082076;28;20206;-84
2022/01/29 07:20:38;;;;;;;35.93;26.93;;;;;;;8.20;89.21;101239.19;5081647;28;20591;-87
2022/01/29 07:35:48;;;;;;;32.07;23.53;;;;;;;8.56;89.04;101239.34;5226441;22;20464;-88
2022/01/29 07:39:06;;;;;;;34.43;24.83;;;;;;;8.54;89.33;101247.97;5046744;28;20799;-88
2022/01/29 07:48:20;;;;;;;26.50;19.97;;;;;;;8.44;90.14;101226.00;5080629;28;20719;-87
2022/01/29 07:55:09;;;;;;;;;;;;;;;;;;;;;
2022/01/29 07:57:35;;;;;;;25.47;17.83;;;;;;;8.49;89.43;101215.78;5080456;28;20391;-83
2022/01/29 08:00:00;;;;;;;25.90;17.73;;;;;;;8.23;90.62;101216.78;5062878;28;20483;-83
2022/01/29 08:02:26;;;;;;;24.47;19.10;;;;;;;8.77;89.54;101207.81;5047156;28;20175;-86
2022/01/29 08:04:51;;;;;;;25.33;18.23;;;;;;;8.55;90.25;101206.41;5062512;28;20199;-82
2022/01/29 08:07:22;;;;;;;26.50;18.40;;;;;;;8.75;88.41;101199.13;5081067;28;20231;-84
2022/01/29 08:13:10;;;;;;;19.47;16.00;;;;;;;8.65;89.32;101207.50;4987859;28;20415;-84
2022/01/29 08:15:35;;;;;;;22.73;16.23;;;;;;;8.64;89.55;101192.75;5062560;28;20415;-85
2022/01/29 08:18:00;;;;;;;21.90;17.20;;;;;;;8.50;90.51;101196.75;5080340;28;20177;-83
2022/01/29 08:20:26;;;;;;;21.00;15.87;;;;;;;8.67;89.05;101187.63;5084765;28;20222;-85
2022/01/29 08:22:52;;;;;;;22.43;16.20;;;;;;;8.56;90.31;101176.97;5050813;28;20165;-83
2022/01/29 08:25:18;;;;;;;21.37;14.63;;;;;;;8.60;89.93;101167.53;5064061;28;20727;-78
2022/01/29 08:27:43;;;;;;;19.23;15.50;;;;;;;8.79;89.41;101168.00;5063824;28;20176;-74
2022/01/29 08:30:09;;;;;;;16.80;13.20;;;;;;;8.70;89.46;101159.13;5080973;28;20583;-76
2022/01/29 08:32:41;;;;;;;19.90;15.37;;;;;;;8.49;89.60;101153.41;5062665;28;20168;-76
2022/01/29 08:35:10;;;;;;;19.20;14.40;;;;;;;8.57;90.05;101151.88;5063944;28;20254;-76
2022/01/29 08:37:35;;;;;;;20.00;14.40;;;;;;;8.87;89.20;101141.31;5061896;28;20390;-74
2022/01/29 08:40:00;;;;;;;17.40;13.13;;;;;;;8.77;89.45;101139.34;5080014;28;20425;-74
2022/01/29 08:42:26;;;;;;;16.70;13.80;;;;;;;8.72;90.00;101134.03;5080616;28;20181;-75
2022/01/29 08:44:51;;;;;;;18.57;13.97;;;;;;;8.77;89.33;101140.22;5045701;28;20179;-71
2022/01/29 08:47:17;;;;;;;19.60;15.50;;;;;;;8.76;90.10;101122.88;5079809;28;20201;-73
2022/01/29 08:49:42;;;;;;;15.40;13.50;;;;;;;8.77;89.38;101122.03;5060759;28;20204;-76
2022/01/29 08:52:08;;;;;;;15.73;14.03;;;;;;;8.71;90.20;101110.59;5080296;28;20165;-76
2022/01/29 08:54:33;;;;;;;17.13;13.70;;;;;;;9.02;88.72;101093.97;5082154;28;20196;-75
2022/01/29 08:56:58;;;;;;;15.60;12.40;;;;;;;8.66;89.95;101097.53;5082372;28;20153;-75
2022/01/29 08:59:24;;;;;;;16.20;13.00;;;;;;;8.63;90.15;101096.56;5084701;28;20491;-75
2022/01/29 09:01:49;;;;;;;17.33;13.63;;;;;;;8.81;89.38;101094.38;5086905;28;20486;-76
2022/01/29 09:04:15;;;;;;;12.70;11.40;;;;;;;8.73;89.42;101085.53;5084786;28;20240;-74
2022/01/29 09:06:41;;;;;;;15.33;12.87;;;;;;;8.60;89.39;101071.38;5084008;28;20291;-74
2022/01/29 09:09:06;;;;;;;16.00;13.57;;;;;;;9.03;88.28;101074.94;5079426;28;20224;-74
2022/01/29 09:11:33;;;;;;;15.63;13.43;;;;;;;8.82;88.85;101074.47;5079034;28;20165;-74
2022/01/29 09:13:58;;;;;;;15.87;12.10;;;;;;;8.86;88.92;101084.06;5078779;28;20581;-75
2022/01/29 09:16:24;;;;;;;13.37;11.83;;;;;;;8.86;89.10;101077.19;5078383;28;20390;-74
2022/01/29 09:18:49;;;;;;;14.70;12.33;;;;;;;8.87;88.83;101063.31;5078861;28;20227;-74
2022/01/29 09:21:14;;;;;;;13.00;10.90;;;;;;;8.95;89.17;101076.50;5061216;28;20213;-74
2022/01/29 09:23:41;;;;;;;13.13;10.37;;;;;;;8.89;88.13;101060.75;5078513;28;20193;-75
2022/01/29 09:26:06;;;;;;;13.67;11.57;;;;;;;8.95;88.42;101066.09;5061996;28;20222;-76
2022/01/29 09:28:31;;;;;;;12.87;11.00;;;;;;;8.86;88.83;101066.78;5079199;28;20394;-74
2022/01/29 09:30:57;;;;;;;12.37;10.90;;;;;;;8.97;89.28;101054.00;5078172;28;20185;-75
2022/01/29 09:33:22;;;;;;;13.07;11.37;;;;;;;8.81;88.92;101057.09;5078533;28;20191;-74
2022/01/29 09:35:47;;;;;;;14.00;12.47;;;;;;;9.06;88.79;101051.56;5060342;28;20526;-75
2022/01/29 09:38:13;;;;;;;12.10;10.90;;;;;;;8.92;88.33;101045.22;5058274;28;20256;-75
2022/01/29 09:40:40;;;;;;;14.30;11.70;;;;;;;9.12;88.26;101049.94;5058438;28;20180;-75
2022/01/29 09:43:08;;;;;;;13.80;11.53;;;;;;;8.92;88.29;101043.50;5057647;28;20173;-75
2022/01/29 09:45:34;;;;;;;14.77;11.10;;;;;;;8.85;89.30;101039.03;5057784;28;20403;-74
2022/01/29 09:48:02;;;;;;;12.83;11.20;;;;;;;9.11;87.92;101036.09;5058199;28;20406;-75
2022/01/29 09:50:32;;;;;;;12.13;10.83;;;;;;;8.96;88.68;101040.94;5060501;28;20177;-76
2022/01/29 09:52:58;;;;;;;14.00;10.80;;;;;;;8.87;88.60;101036.44;5061839;28;20433;-75
2022/01/29 09:55:30;;;;;;;11.80;10.13;;;;;;;8.62;90.76;101033.31;5062608;28;20436;-79
2022/01/29 09:57:57;;;;;;;12.80;10.50;;;;;;;8.93;88.99;101034.84;5034292;28;20420;-83
2022/01/29 10:00:23;;;;;;;13.50;11.77;;;;;;;9.48;87.20;101015.97;5065190;28;20459;-84
2022/01/29 10:03:19;;;;;;;14.73;11.07;;;;;;;9.21;87.91;101011.13;5064698;28;20411;-83
2022/01/29 10:05:47;;;;;;;12.37;10.40;;;;;;;9.06;88.11;101020.38;5035158;28;20705;-77
2022/01/29 10:08:13;;;;;;;11.53;10.33;;;;;;;8.76;89.44;101013.69;5067845;28;20382;-84
2022/01/29 10:10:50;;;;;;;12.43;10.43;;;;;;;8.86;90.03;101019.09;5054779;28;20435;-86
2022/01/29 10:13:24;;;;;;;11.43;10.10;;;;;;;8.95;89.05;101006.28;5050176;28;20195;-76
2022/01/29 10:15:51;;;;;;;12.93;9.50;;;;;;;9.14;88.80;100999.72;5063769;28;20386;-75
2022/01/29 10:18:21;;;;;;;11.07;9.97;;;;;;;9.04;89.40;100993.47;5045910;28;20859;-74
2022/01/29 10:20:46;;;;;;;12.80;9.17;;;;;;;8.94;88.92;100988.91;5046121;28;20422;-75
2022/01/29 10:23:12;;;;;;;10.73;9.57;;;;;;;9.04;89.13;100983.06;5062563;28;20416;-83
2022/01/29 10:25:41;;;;;;;11.30;9.43;;;;;;;9.22;88.28;100971.25;5030015;28;20255;-76
2022/01/29 10:28:15;;;;;;;11.97;9.90;;;;;;;9.37;88.48;100961.13;5061210;28;20193;-77
2022/01/29 10:30:49;;;;;;;11.57;8.93;;;;;;;8.93;89.66;100948.19;5061315;28;20458;-81
2022/01/29 10:33:22;;;;;;;12.07;9.20;;;;;;;9.38;88.97;100939.47;5061034;28;20399;-80
2022/01/29 10:36:07;;;;;;;11.60;10.10;;;;;;;9.46;87.81;100938.72;5060931;28;20442;-77
2022/01/29 10:38:41;;;;;;;10.70;9.40;;;;;;;9.10;89.19;100944.16;5061149;28;20408;-86
2022/01/29 10:41:23;;;;;;;10.90;9.80;;;;;;;8.91;89.50;100929.94;5061212;28;20720;-79
2022/01/29 10:43:55;;;;;;;10.97;9.80;;;;;;;9.16;89.68;100940.81;5061256;28;20469;-79
2022/01/29 10:46:28;;;;;;;11.27;9.40;;;;;;;9.46;87.88;100926.59;5061572;28;20461;-89
2022/01/29 10:48:56;;;;;;;11.53;9.73;;;;;;;9.07;89.70;100920.69;5043786;28;20412;-79
2022/01/29 10:51:21;;;;;;;9.40;8.33;;;;;;;9.03;90.24;100918.88;5060860;28;20404;-79
2022/01/29 10:54:27;;;;;;;10.60;9.47;;;;;;;9.08;89.45;100891.25;5063455;28;20626;-89
2022/01/29 10:56:56;;;;;;;10.03;8.90;;;;;;;9.11;90.78;100885.22;5061369;28;20176;-76
2022/01/29 10:59:22;;;;;;;11.40;8.70;;;;;;;9.44;88.67;100895.34;5060514;28;20398;-77
2022/01/29 11:02:01;;;;;;;11.80;10.60;;;;;;;9.13;96.02;100895.66;5060105;28;20422;-79
2022/01/29 11:04:29;;;;;;;10.50;8.97;;;;;;;9.12;90.95;100878.28;5043444;28;20844;-76
2022/01/29 11:06:55;;;;;;;8.40;7.60;;;;;;;8.83;91.54;100870.84;5043393;28;20452;-77
2022/01/29 11:09:21;;;;;;;9.33;8.30;;;;;;;9.12;90.16;100860.09;5060619;28;20387;-77
2022/01/29 11:11:47;;;;;;;10.00;8.50;;;;;;;9.25;89.81;100851.66;5060292;28;20431;-76
2022/01/29 11:14:13;;;;;;;12.23;9.70;;;;;;;9.38;88.86;100840.59;5045122;28;20454;-86
2022/01/29 11:16:39;;;;;;;10.53;9.23;;;;;;;9.02;89.54;100853.84;5043501;28;20352;-84
2022/01/29 11:19:06;;;;;;;9.90;8.20;;;;;;;8.86;90.54;100822.41;5027208;28;20438;-84
2022/01/29 11:21:32;;;;;;;11.43;9.10;;;;;;;9.03;90.84;100847.81;5043895;28;20253;-85
2022/01/29 11:23:58;;;;;;;11.93;8.90;;;;;;;9.03;90.99;100840.88;5044269;28;20382;-84
2022/01/29 11:26:23;;;;;;;9.10;8.30;;;;;;;8.93;90.31;100850.25;5029017;28;20495;-84
2022/01/29 11:28:49;;;;;;;11.03;9.93;;;;;;;9.26;90.07;100841.25;5043826;28;20209;-76
2022/01/29 11:31:14;;;;;;;13.33;10.00;;;;;;;9.27;89.81;100839.56;5042734;28;20174;-74
2022/01/29 11:33:57;;;;;;;12.90;10.80;;;;;;;9.18;88.66;100818.59;5059725;28;20428;-80
2022/01/29 11:36:22;;;;;;;12.50;11.20;;;;;;;9.31;88.66;100825.75;5059875;28;20231;-76
2022/01/29 11:38:48;;;;;;;12.47;10.50;;;;;;;8.97;89.64;100809.59;5059803;28;20510;-77
2022/01/29 11:41:13;;;;;;;13.03;11.70;;;;;;;9.35;88.57;100814.53;5060770;28;20174;-75
2022/01/29 11:43:38;;;;;;;12.50;9.97;;;;;;;9.21;88.34;100829.91;5059941;28;20169;-78
2022/01/29 11:46:30;;;;;;;11.50;10.17;;;;;;;9.25;88.21;100838.66;5058901;28;20355;-76
2022/01/29 11:48:56;;;;;;;12.63;10.57;;;;;;;9.32;87.24;100832.69;5043533;28;20281;-77
2022/01/29 11:51:39;;;;;;;11.90;10.40;;;;;;;9.76;85.79;100823.81;5025960;28;20427;-77
2022/01/29 11:54:04;;;;;;;12.57;10.07;;;;;;;9.20;86.98;100806.47;5059673;28;20805;-75
2022/01/29 11:56:34;;;;;;;14.17;10.30;;;;;;;9.49;85.46;100803.47;5059708;28;20499;-77
2022/01/29 11:59:30;;;;;;;11.43;9.80;;;;;;;9.31;86.58;100796.25;5060065;28;20431;-77
2022/01/29 12:01:57;;;;;;;11.17;9.60;;;;;;;9.42;85.34;100803.38;5066225;28;20404;-85
2022/01/29 12:04:49;;;;;;;11.10;9.73;;;;;;;9.58;85.36;100781.06;5063339;28;20379;-84
2022/01/29 12:07:30;;;;;;;11.60;10.13;;;;;;;9.57;85.50;100788.84;5060406;28;20465;-82
2022/01/29 12:10:14;;;;;;;10.20;8.47;;;;;;;9.43;85.52;100789.50;5027865;28;20406;-84
2022/01/29 12:12:44;;;;;;;12.00;9.60;;;;;;;9.79;83.70;100782.19;5059488;28;20398;-85
2022/01/29 12:15:09;;;;;;;10.70;9.20;;;;;;;9.76;83.37;100749.19;5025881;28;20572;-83
2022/01/29 12:17:46;;;;;;;9.77;8.70;;;;;;;9.69;83.43;100751.72;5060015;28;20421;-85
2022/01/29 12:20:16;;;;;;;13.00;8.70;;;;;;;9.73;84.13;100730.94;5042483;28;20170;-85
2022/01/29 12:22:42;;;;;;;9.00;8.20;;;;;;;9.99;83.81;100729.50;5025909;28;20435;-83
2022/01/29 12:25:10;;;;;;;10.60;8.70;;;;;;;10.01;82.48;100713.06;5059902;28;20379;-85
2022/01/29 12:28:05;;;;;;;8.57;7.67;;;;;;;9.56;84.68;100709.88;5059530;28;21651;-84
2022/01/29 12:30:33;;;;;;;9.30;8.40;;;;;;;9.69;85.13;100712.66;5040672;28;20466;-83
2022/01/29 12:33:05;;;;;;;12.23;8.77;;;;;;;9.96;84.20;100706.91;5059923;28;20657;-83
2022/01/29 12:35:43;;;;;;;9.37;8.37;;;;;;;9.49;85.34;100709.78;5074963;28;20699;-82
2022/01/29 12:38:16;;;;;;;10.30;7.60;;;;;;;9.52;84.80;100687.25;5080048;28;20476;-84
2022/01/29 12:40:56;;;;;;;9.57;8.73;;;;;;;10.12;83.73;100694.94;5079950;28;20415;-85
2022/01/29 12:43:33;;;;;;;8.33;7.53;;;;;;;9.78;82.99;100684.09;5062720;28;20459;-87
2022/01/29 12:46:12;;;;;;;8.60;7.70;;;;;;;9.73;83.04;100662.38;5079608;28;20433;-87
2022/01/29 12:48:38;;;;;;;7.80;6.77;;;;;;;11.61;79.18;100653.44;5062152;28;20403;-65
2022/01/29 12:51:06;;;;;;;10.50;7.10;;;;;;;11.10;76.99;100640.13;5061520;28;20420;-65
2022/01/29 12:53:32;;;;;;;7.83;6.30;;;;;;;11.26;75.21;100637.63;5078693;28;20472;-64
2022/01/29 12:56:03;;;;;;;7.47;6.50;;;;;;;10.28;79.01;100633.41;5077822;28;20744;-82
2022/01/29 12:58:39;;;;;;;8.77;6.20;;;;;;;10.10;80.24;100629.78;5059131;28;20856;-80
2022/01/29 13:01:13;;;;;;;9.40;7.93;;;;;;;10.53;79.86;100631.06;5059125;28;20411;-79
2022/01/29 13:03:39;;;;;;;6.90;6.20;;;;;;;9.94;80.42;100615.75;5058621;28;20797;-81
2022/01/29 13:06:10;;;;;;;6.97;6.10;;;;;;;10.09;80.83;100622.84;5059564;28;20761;-79
2022/01/29 13:08:35;;;;;;;7.60;6.20;;;;;;;9.85;80.83;100605.22;5059460;28;20420;-80
2022/01/29 13:11:01;;;;;;;7.50;6.63;;;;;;;10.58;78.89;100600.66;5060279;28;20394;-85
2022/01/29 13:13:32;;;;;;;6.93;6.10;;;;;;;10.43;79.11;100597.13;5059899;28;20221;-81
2022/01/29 13:15:58;;;;;;;9.80;6.57;;;;;;;10.23;80.03;100570.00;5025596;28;20197;-83
2022/01/29 13:18:24;;;;;;;6.50;5.90;;;;;;;10.14;80.13;100564.69;5043001;28;20444;-83
2022/01/29 13:20:51;;;;;;;6.17;5.57;;;;;;;10.19;79.46;100558.66;5041833;28;20442;-78
2022/01/29 13:23:17;;;;;;;6.17;4.90;;;;;;;10.10;79.54;100551.63;5057994;28;20587;-78
2022/01/29 13:25:42;;;;;;;7.17;5.13;;;;;;;10.09;79.04;100533.38;5058064;28;20411;-78